createdAt,value
2023-01-08T00:01:19.602Z,4.13
2023-01-08T00:03:47.909Z,4.11
2023-01-08T00:06:19.071Z,4.06
2023-01-08T00:08:46.464Z,4.04
2023-01-08T00:11:14.927Z,3.98
2023-01-08T00:13:42.356Z,3.94
2023-01-08T00:16:14.611Z,3.90
2023-01-08T00:18:42.749Z,3.82
2023-01-08T00:21:10.836Z,3.74
2023-01-08T00:23:38.660Z,3.68
2023-01-08T00:26:09.621Z,3.64
2023-01-08T00:28:38.232Z,3.59
2023-01-08T00:31:06.859Z,3.58
2023-01-08T00:33:35.626Z,3.60
2023-01-08T00:36:13.120Z,3.63
2023-01-08T00:38:41.857Z,3.68
2023-01-08T00:41:09.930Z,3.68
2023-01-08T00:43:38.094Z,3.69
2023-01-08T00:46:06.855Z,3.70
2023-01-08T00:48:38.655Z,3.69
2023-01-08T00:51:08.770Z,3.63
2023-01-08T00:53:38.167Z,3.62
2023-01-08T00:56:10.250Z,3.63
2023-01-08T00:58:38.339Z,3.63
2023-01-08T01:01:14.881Z,3.63
2023-01-08T01:03:43.124Z,3.62
2023-01-08T01:06:12.296Z,3.62
2023-01-08T01:08:40.769Z,3.62
2023-01-08T01:11:21.128Z,3.69
2023-01-08T01:13:49.324Z,3.69
2023-01-08T01:16:18.709Z,3.60
2023-01-08T01:18:49.285Z,3.51
2023-01-08T01:21:27.131Z,3.41
2023-01-08T01:23:57.859Z,3.32
2023-01-08T01:26:26.839Z,3.37
2023-01-08T01:28:57.597Z,3.36
2023-01-08T01:31:28.768Z,3.36
2023-01-08T01:33:56.961Z,3.45
2023-01-08T01:36:26.089Z,3.47
2023-01-08T01:38:56.626Z,3.51
2023-01-08T01:41:29.174Z,3.53
2023-01-08T01:44:01.216Z,3.58
2023-01-08T01:46:38.597Z,3.58
2023-01-08T01:49:15.384Z,3.58
2023-01-08T01:51:49.627Z,3.59
2023-01-08T01:54:18.436Z,3.60
2023-01-08T01:56:46.860Z,3.61
2023-01-08T01:59:17.603Z,3.64
2023-01-08T02:01:46.387Z,3.70
2023-01-08T02:04:16.536Z,3.73
2023-01-08T02:06:55.760Z,3.74
2023-01-08T02:09:57.618Z,3.74
2023-01-08T02:12:44.625Z,3.70
2023-01-08T02:15:45.084Z,3.70
2023-01-08T02:18:19.315Z,3.71
2023-01-08T02:21:02.733Z,3.68
2023-01-08T02:23:48.234Z,3.67
2023-01-08T02:26:42.285Z,3.67
2023-01-08T02:29:16.517Z,3.70
2023-01-08T02:31:44.829Z,3.68
2023-01-08T02:34:13.264Z,3.64
2023-01-08T02:37:01.329Z,3.60
2023-01-08T02:39:51.836Z,3.55
2023-01-08T02:43:06.023Z,3.56
2023-01-08T02:45:51.134Z,3.55
2023-01-08T02:48:45.012Z,3.53
2023-01-08T02:51:35.579Z,3.48
2023-01-08T02:54:09.984Z,3.49
2023-01-08T02:56:45.605Z,3.47
2023-01-08T02:59:15.833Z,3.41
2023-01-08T03:01:45.796Z,3.34
2023-01-08T03:04:19.545Z,3.35
2023-01-08T03:06:48.041Z,3.36
2023-01-08T03:09:17.202Z,3.38
2023-01-08T03:12:04.431Z,3.36
2023-01-08T03:15:16.050Z,3.42
2023-01-08T03:17:48.831Z,3.46
2023-01-08T03:20:20.765Z,3.48
2023-01-08T03:22:54.817Z,3.48
2023-01-08T03:25:26.784Z,3.49
2023-01-08T03:28:05.109Z,3.50
2023-01-08T03:30:33.328Z,3.52
2023-01-08T03:33:02.626Z,3.50
2023-01-08T03:35:35.013Z,3.47
2023-01-08T03:38:15.869Z,3.43
2023-01-08T03:40:53.323Z,3.44
2023-01-08T03:43:20.930Z,3.46
2023-01-08T03:46:01.706Z,3.51
2023-01-08T03:48:33.288Z,3.54
2023-01-08T03:51:00.884Z,3.58
2023-01-08T03:53:28.868Z,3.61
2023-01-08T03:55:58.158Z,3.62
2023-01-08T03:58:25.536Z,3.62
2023-01-08T04:00:52.960Z,3.61
2023-01-08T04:03:20.413Z,3.58
2023-01-08T04:05:47.885Z,3.57
2023-01-08T04:08:15.315Z,3.54
2023-01-08T04:10:42.581Z,3.52
2023-01-08T04:13:09.913Z,3.55
2023-01-08T04:15:37.855Z,3.58
2023-01-08T04:18:05.363Z,3.55
2023-01-08T04:20:32.800Z,3.62
2023-01-08T04:23:00.130Z,3.67
2023-01-08T04:25:27.533Z,3.63
2023-01-08T04:27:55.323Z,3.60
2023-01-08T04:30:22.642Z,3.61
2023-01-08T04:32:50.060Z,3.57
2023-01-08T04:35:17.470Z,3.56
2023-01-08T04:37:44.837Z,3.58
2023-01-08T04:40:12.265Z,3.59
2023-01-08T04:42:39.613Z,3.66
2023-01-08T04:45:08.359Z,3.67
2023-01-08T04:47:35.748Z,3.57
2023-01-08T04:50:03.394Z,3.58
2023-01-08T04:52:30.744Z,3.57
2023-01-08T04:55:00.244Z,3.59
2023-01-08T04:57:27.789Z,3.56
2023-01-08T04:59:55.188Z,3.60
2023-01-08T05:02:22.876Z,3.61
2023-01-08T05:04:50.352Z,3.60
2023-01-08T05:07:17.761Z,3.57
2023-01-08T05:09:45.065Z,3.46
2023-01-08T05:12:12.381Z,3.39
2023-01-08T05:14:39.849Z,3.41
2023-01-08T05:17:07.219Z,3.46
2023-01-08T05:19:34.528Z,3.48
2023-01-08T05:22:01.928Z,3.43
2023-01-08T05:24:29.264Z,3.43
2023-01-08T05:26:56.667Z,3.44
2023-01-08T05:29:24.050Z,3.45
2023-01-08T05:31:51.384Z,3.44
2023-01-08T05:34:18.812Z,3.45
2023-01-08T05:36:46.210Z,3.43
2023-01-08T05:39:13.780Z,3.39
2023-01-08T05:41:41.167Z,3.35
2023-01-08T05:44:10.378Z,3.34
2023-01-08T05:46:37.816Z,3.32
2023-01-08T05:49:05.503Z,3.39
2023-01-08T05:51:32.806Z,3.41
2023-01-08T05:54:00.174Z,3.45
2023-01-08T05:56:27.565Z,3.47
2023-01-08T05:58:55.932Z,3.49
2023-01-08T06:01:23.423Z,3.47
2023-01-08T06:03:51.028Z,3.46
2023-01-08T06:06:18.494Z,3.45
2023-01-08T06:08:45.814Z,3.47
2023-01-08T06:11:13.703Z,3.50
2023-01-08T06:13:43.808Z,3.56
2023-01-08T06:16:12.208Z,3.58
2023-01-08T06:18:40.123Z,3.53
2023-01-08T06:21:07.378Z,3.47
2023-01-08T06:23:34.891Z,3.30
2023-01-08T06:26:04.256Z,3.53
2023-01-08T06:28:32.907Z,4.11
2023-01-08T06:31:01.343Z,4.66
2023-01-08T06:33:30.134Z,5.31
2023-01-08T06:36:04.446Z,5.87
2023-01-08T06:38:36.443Z,6.51
2023-01-08T06:41:10.347Z,6.91
2023-01-08T06:43:38.695Z,7.47
2023-01-08T06:46:09.255Z,7.73
2023-01-08T06:48:37.494Z,8.41
2023-01-08T06:51:05.307Z,8.75
2023-01-08T06:53:33.325Z,9.09
2023-01-08T06:56:02.206Z,9.33
2023-01-08T06:58:30.414Z,9.78
2023-01-08T07:00:59.081Z,10.13
2023-01-08T07:03:27.001Z,10.59
2023-01-08T07:05:55.890Z,11.29
2023-01-08T07:08:23.528Z,12.13
2023-01-08T07:10:50.908Z,13.59
2023-01-08T07:13:18.196Z,14.39
2023-01-08T07:15:45.606Z,14.99
2023-01-08T07:18:13.936Z,15.39
2023-01-08T07:20:41.285Z,15.73
2023-01-08T07:23:11.967Z,16.17
2023-01-08T07:25:39.455Z,16.07
2023-01-08T07:28:12.082Z,15.77
2023-01-08T07:30:39.613Z,15.30
2023-01-08T07:33:07.102Z,14.49
2023-01-08T07:35:35.650Z,13.77
2023-01-08T07:38:03.098Z,14.13
2023-01-08T07:40:31.851Z,13.77
2023-01-08T07:43:04.879Z,13.53
2023-01-08T07:45:32.707Z,12.60
2023-01-08T07:48:00.735Z,12.32
2023-01-08T07:50:28.967Z,12.25
2023-01-08T07:53:01.425Z,12.38
2023-01-08T07:55:30.871Z,12.14
2023-01-08T07:57:59.144Z,11.98
2023-01-08T08:00:27.345Z,11.69
2023-01-08T08:02:54.857Z,11.89
2023-01-08T08:05:22.327Z,11.99
2023-01-08T08:07:49.690Z,12.38
2023-01-08T08:10:17.329Z,12.80
2023-01-08T08:12:45.814Z,12.72
2023-01-08T08:15:13.098Z,12.70
2023-01-08T08:17:40.455Z,12.89
2023-01-08T08:20:08.530Z,13.12
2023-01-08T08:22:35.882Z,13.19
2023-01-08T08:25:03.545Z,13.43
2023-01-08T08:27:30.901Z,14.45
2023-01-08T08:29:58.259Z,14.49
2023-01-08T08:32:25.639Z,14.74
2023-01-08T08:34:53.248Z,14.81
2023-01-08T08:37:20.579Z,15.39
2023-01-08T08:39:47.994Z,15.92
2023-01-08T08:42:15.384Z,15.48
2023-01-08T08:44:43.153Z,15.89
2023-01-08T08:47:10.611Z,16.16
2023-01-08T08:49:38.152Z,15.98
2023-01-08T08:52:05.715Z,16.20
2023-01-08T08:54:33.175Z,16.61
2023-01-08T08:57:00.494Z,17.00
2023-01-08T08:59:27.836Z,17.54
2023-01-08T09:01:55.377Z,17.76
2023-01-08T09:04:22.868Z,17.20
2023-01-08T09:06:50.270Z,16.15
2023-01-08T09:09:18.027Z,15.97
2023-01-08T09:11:45.342Z,17.26
2023-01-08T09:14:12.759Z,18.46
2023-01-08T09:16:40.273Z,17.98
2023-01-08T09:19:09.475Z,16.46
2023-01-08T09:21:37.417Z,17.03
2023-01-08T09:24:05.274Z,17.89
2023-01-08T09:26:32.986Z,18.16
2023-01-08T09:29:00.446Z,19.28
2023-01-08T09:31:28.013Z,17.58
2023-01-08T09:33:55.409Z,18.14
2023-01-08T09:36:22.708Z,17.61
2023-01-08T09:38:50.129Z,18.58
2023-01-08T09:41:25.591Z,18.98
2023-01-08T09:43:56.474Z,19.55
2023-01-08T09:46:28.608Z,20.25
2023-01-08T09:49:01.871Z,20.92
2023-01-08T09:51:36.221Z,20.96
2023-01-08T09:54:07.373Z,20.51
2023-01-08T09:56:35.608Z,20.67
2023-01-08T09:59:05.286Z,20.04
2023-01-08T10:01:38.844Z,19.80
2023-01-08T10:04:29.819Z,20.12
2023-01-08T10:07:02.177Z,19.49
2023-01-08T10:09:32.507Z,20.16
2023-01-08T10:12:04.149Z,19.50
2023-01-08T10:14:39.335Z,19.12
2023-01-08T10:17:19.420Z,19.71
2023-01-08T10:19:46.747Z,20.36
2023-01-08T10:22:20.685Z,18.03
2023-01-08T10:24:48.453Z,18.27
2023-01-08T10:27:24.109Z,19.22
2023-01-08T10:29:52.508Z,18.64
2023-01-08T10:32:34.704Z,17.82
2023-01-08T10:35:07.693Z,18.70
2023-01-08T10:37:43.274Z,19.25
2023-01-08T10:40:24.874Z,20.23
2023-01-08T10:42:54.908Z,19.54
2023-01-08T10:45:26.111Z,20.45
2023-01-08T10:48:04.444Z,20.53
2023-01-08T10:50:34.742Z,18.52
2023-01-08T10:53:05.925Z,18.86
2023-01-08T10:55:37.444Z,18.44
2023-01-08T10:58:15.246Z,19.97
2023-01-08T11:00:43.047Z,20.40
2023-01-08T11:03:28.518Z,19.62
2023-01-08T11:05:56.019Z,20.60
2023-01-08T11:08:24.909Z,20.21
2023-01-08T11:10:59.360Z,19.62
2023-01-08T11:13:28.631Z,19.05
2023-01-08T11:16:11.039Z,19.54
2023-01-08T11:18:50.434Z,19.47
2023-01-08T11:21:33.627Z,19.81
2023-01-08T11:24:18.094Z,18.45
2023-01-08T11:26:52.097Z,18.95
2023-01-08T11:30:00.709Z,18.48
2023-01-08T11:32:49.134Z,19.18
2023-01-08T11:35:29.838Z,18.57
2023-01-08T11:38:02.278Z,17.85
2023-01-08T11:40:41.573Z,17.54
2023-01-08T11:43:33.529Z,17.79
2023-01-08T11:46:15.627Z,17.13
2023-01-08T11:49:05.906Z,17.24
2023-01-08T11:51:56.937Z,17.73
2023-01-08T11:54:46.288Z,16.97
2023-01-08T11:57:37.963Z,17.01
2023-01-08T12:00:43.030Z,16.79
2023-01-08T12:03:42.295Z,16.60
2023-01-08T12:07:07.013Z,16.42
2023-01-08T12:09:46.794Z,16.46
2023-01-08T12:12:48.589Z,16.40
2023-01-08T12:15:26.483Z,16.27
2023-01-08T12:18:09.014Z,16.36
2023-01-08T12:20:54.424Z,16.03
2023-01-08T12:23:43.337Z,16.08
2023-01-08T12:27:03.712Z,15.99
2023-01-08T12:30:06.451Z,15.97
2023-01-08T12:32:43.968Z,15.83
2023-01-08T12:35:18.925Z,15.79
2023-01-08T12:37:57.749Z,15.62
2023-01-08T12:40:39.752Z,15.54
2023-01-08T12:43:19.876Z,15.30
2023-01-08T12:45:53.397Z,15.31
2023-01-08T12:48:33.698Z,14.74
2023-01-08T12:51:25.588Z,15.04
2023-01-08T12:54:38.728Z,15.09
2023-01-08T12:57:42.683Z,14.95
2023-01-08T13:00:31.786Z,14.83
2023-01-08T13:03:06.405Z,14.93
2023-01-08T13:05:38.347Z,14.93
2023-01-08T13:08:26.475Z,14.85
2023-01-08T13:10:55.424Z,14.82
2023-01-08T13:13:30.130Z,14.70
2023-01-08T13:16:21.794Z,14.60
2023-01-08T13:19:03.362Z,14.63
2023-01-08T13:21:35.218Z,14.63
2023-01-08T13:24:26.839Z,14.56
2023-01-08T13:26:54.848Z,14.51
2023-01-08T13:29:43.587Z,14.48
2023-01-08T13:32:39.023Z,14.44
2023-01-08T13:35:15.459Z,14.45
2023-01-08T13:37:44.386Z,14.42
2023-01-08T13:40:42.813Z,14.38
2023-01-08T13:43:28.601Z,14.27
2023-01-08T13:46:02.071Z,14.32
2023-01-08T13:48:49.521Z,14.28
2023-01-08T13:51:40.613Z,14.19
2023-01-08T13:54:21.810Z,14.13
2023-01-08T13:56:55.700Z,14.11
2023-01-08T13:59:55.413Z,14.00
2023-01-08T14:02:50.619Z,13.95
2023-01-08T14:05:36.926Z,13.94
2023-01-08T14:08:04.575Z,13.87
2023-01-08T14:10:32.840Z,13.80
2023-01-08T14:13:09.251Z,13.73
2023-01-08T14:15:39.102Z,13.66
2023-01-08T14:18:06.632Z,13.59
2023-01-08T14:20:41.151Z,13.54
2023-01-08T14:23:13.263Z,13.52
2023-01-08T14:25:41.799Z,13.48
2023-01-08T14:28:18.357Z,13.38
2023-01-08T14:30:55.395Z,13.37
2023-01-08T14:33:39.604Z,13.31
2023-01-08T14:36:08.262Z,13.22
2023-01-08T14:38:35.642Z,13.14
2023-01-08T14:41:09.013Z,13.11
2023-01-08T14:43:44.121Z,13.05
2023-01-08T14:46:30.054Z,12.97
2023-01-08T14:48:58.381Z,12.91
2023-01-08T14:51:30.822Z,12.88
2023-01-08T14:54:06.368Z,12.80
2023-01-08T14:56:36.233Z,12.70
2023-01-08T14:59:10.558Z,12.61
2023-01-08T15:01:38.461Z,12.56
2023-01-08T15:04:22.381Z,12.39
2023-01-08T15:06:53.189Z,12.29
2023-01-08T15:09:33.504Z,12.27
2023-01-08T15:12:07.260Z,12.21
2023-01-08T15:14:36.744Z,12.11
2023-01-08T15:17:15.934Z,12.06
2023-01-08T15:19:50.731Z,11.95
2023-01-08T15:22:26.907Z,11.81
2023-01-08T15:25:00.309Z,11.73
2023-01-08T15:27:28.633Z,11.63
2023-01-08T15:30:00.996Z,11.58
2023-01-08T15:32:38.900Z,11.54
2023-01-08T15:35:18.855Z,11.29
2023-01-08T15:37:46.543Z,11.05
2023-01-08T15:40:14.427Z,10.93
2023-01-08T15:43:02.903Z,10.83
2023-01-08T15:45:34.141Z,10.84
2023-01-08T15:48:01.545Z,10.94
2023-01-08T15:50:32.807Z,10.74
2023-01-08T15:53:01.505Z,10.37
2023-01-08T15:55:32.377Z,10.14
2023-01-08T15:58:00.467Z,9.97
2023-01-08T16:00:28.144Z,9.74
2023-01-08T16:02:55.804Z,9.58
2023-01-08T16:05:24.422Z,9.49
2023-01-08T16:07:52.352Z,9.43
2023-01-08T16:10:19.867Z,9.30
2023-01-08T16:12:47.572Z,9.15
2023-01-08T16:15:16.077Z,9.10
2023-01-08T16:17:44.235Z,9.09
2023-01-08T16:20:13.813Z,9.09
2023-01-08T16:22:41.739Z,8.99
2023-01-08T16:25:09.862Z,8.89
2023-01-08T16:27:38.402Z,8.84
2023-01-08T16:30:08.050Z,8.75
2023-01-08T16:32:35.548Z,8.72
2023-01-08T16:35:02.957Z,8.86
2023-01-08T16:37:31.336Z,9.15
2023-01-08T16:39:58.643Z,9.13
2023-01-08T16:42:26.060Z,8.91
2023-01-08T16:44:53.530Z,8.80
2023-01-08T16:47:20.920Z,8.73
2023-01-08T16:49:50.376Z,8.65
2023-01-08T16:52:18.427Z,8.59
2023-01-08T16:54:47.387Z,8.54
2023-01-08T16:57:15.034Z,8.47
2023-01-08T16:59:42.510Z,8.42
2023-01-08T17:02:10.985Z,8.34
2023-01-08T17:04:38.269Z,8.26
2023-01-08T17:07:05.633Z,8.20
2023-01-08T17:09:33.798Z,8.11
2023-01-08T17:12:01.515Z,8.07
2023-01-08T17:14:29.022Z,8.02
2023-01-08T17:16:56.371Z,7.98
2023-01-08T17:19:23.900Z,7.93
2023-01-08T17:21:51.353Z,7.92
2023-01-08T17:24:18.842Z,8.00
2023-01-08T17:26:46.290Z,8.01
2023-01-08T17:29:13.674Z,8.04
2023-01-08T17:31:41.161Z,8.06
2023-01-08T17:34:13.430Z,8.04
2023-01-08T17:36:41.218Z,8.00
2023-01-08T17:39:10.171Z,7.99
2023-01-08T17:41:56.319Z,7.93
2023-01-08T17:44:26.321Z,7.94
2023-01-08T17:46:53.739Z,7.93
2023-01-08T17:49:21.162Z,7.92
2023-01-08T17:51:48.721Z,7.92
2023-01-08T17:54:17.613Z,7.90
2023-01-08T17:56:45.482Z,7.81
2023-01-08T17:59:15.786Z,7.75
2023-01-08T18:01:45.391Z,7.75
2023-01-08T18:04:16.345Z,7.71
2023-01-08T18:06:44.734Z,7.67
2023-01-08T18:09:13.092Z,7.73
2023-01-08T18:11:42.523Z,7.74
2023-01-08T18:14:12.982Z,7.79
2023-01-08T18:16:45.366Z,7.63
2023-01-08T18:19:15.696Z,7.55
2023-01-08T18:21:44.349Z,7.48
2023-01-08T18:24:12.027Z,7.56
2023-01-08T18:26:39.784Z,7.56
2023-01-08T18:29:07.088Z,7.49
2023-01-08T18:31:34.983Z,7.44
2023-01-08T18:34:03.843Z,7.37
2023-01-08T18:36:31.296Z,7.33
2023-01-08T18:38:58.891Z,7.44
2023-01-08T18:41:44.964Z,7.51
2023-01-08T18:44:12.399Z,7.62
2023-01-08T18:46:39.920Z,7.63
2023-01-08T18:49:07.248Z,7.66
2023-01-08T18:51:34.793Z,7.70
2023-01-08T18:54:04.363Z,7.71
2023-01-08T18:56:35.235Z,7.69
2023-01-08T18:59:05.887Z,7.66
2023-01-08T19:01:35.919Z,7.54
2023-01-08T19:04:04.061Z,7.43
2023-01-08T19:06:31.552Z,7.39
2023-01-08T19:09:00.214Z,7.47
2023-01-08T19:11:27.952Z,7.50
2023-01-08T19:13:57.554Z,7.64
2023-01-08T19:16:25.520Z,7.78
2023-01-08T19:18:53.900Z,7.96
2023-01-08T19:21:22.321Z,8.12
2023-01-08T19:23:49.604Z,8.06
2023-01-08T19:26:17.539Z,7.99
2023-01-08T19:28:45.497Z,7.90
2023-01-08T19:31:17.176Z,7.83
2023-01-08T19:33:46.336Z,8.01
2023-01-08T19:36:16.441Z,7.89
2023-01-08T19:38:44.665Z,7.92
2023-01-08T19:41:32.347Z,8.18
2023-01-08T19:44:00.178Z,8.58
2023-01-08T19:46:28.685Z,8.38
2023-01-08T19:48:58.081Z,8.23
2023-01-08T19:51:26.012Z,8.04
2023-01-08T19:53:55.370Z,7.90
2023-01-08T19:56:23.233Z,7.80
2023-01-08T19:58:50.731Z,7.69
2023-01-08T20:01:22.111Z,7.57
2023-01-08T20:03:49.882Z,7.61
2023-01-08T20:06:24.294Z,7.70
2023-01-08T20:08:56.240Z,7.61
2023-01-08T20:11:24.241Z,7.54
2023-01-08T20:13:52.256Z,7.54
2023-01-08T20:16:21.849Z,7.52
2023-01-08T20:18:49.524Z,7.44
2023-01-08T20:21:24.061Z,7.34
2023-01-08T20:23:59.195Z,7.40
2023-01-08T20:26:29.056Z,7.45
2023-01-08T20:28:57.765Z,7.48
2023-01-08T20:31:29.615Z,7.48
2023-01-08T20:34:00.537Z,7.38
2023-01-08T20:36:32.278Z,7.33
2023-01-08T20:39:04.937Z,7.37
2023-01-08T20:41:33.658Z,7.29
2023-01-08T20:44:05.345Z,7.34
2023-01-08T20:46:35.039Z,7.54
2023-01-08T20:49:07.751Z,7.56
2023-01-08T20:51:39.675Z,8.02
2023-01-08T20:54:11.165Z,8.01
2023-01-08T20:56:38.924Z,7.81
2023-01-08T20:59:06.478Z,7.85
2023-01-08T21:01:35.613Z,7.80
2023-01-08T21:04:06.621Z,8.04
2023-01-08T21:06:34.710Z,7.75
2023-01-08T21:09:10.343Z,7.63
2023-01-08T21:11:40.812Z,7.59
2023-01-08T21:14:09.378Z,7.53
2023-01-08T21:16:39.581Z,7.41
2023-01-08T21:19:10.052Z,7.36
2023-01-08T21:21:40.736Z,7.38
2023-01-08T21:24:12.546Z,7.35
2023-01-08T21:26:40.340Z,7.30
2023-01-08T21:29:09.145Z,7.25
2023-01-08T21:31:39.837Z,7.24
2023-01-08T21:34:08.866Z,7.26
2023-01-08T21:36:37.032Z,7.39
2023-01-08T21:39:05.037Z,7.50
2023-01-08T21:41:51.263Z,7.32
2023-01-08T21:44:43.251Z,7.66
2023-01-08T21:47:18.005Z,7.55
2023-01-08T21:49:46.093Z,7.39
2023-01-08T21:52:32.444Z,7.74
2023-01-08T21:55:00.384Z,7.78
2023-01-08T21:57:28.586Z,7.66
2023-01-08T21:59:57.049Z,7.73
2023-01-08T22:02:25.047Z,7.68
2023-01-08T22:04:55.598Z,7.66
2023-01-08T22:07:24.792Z,7.82
2023-01-08T22:09:52.626Z,7.97
2023-01-08T22:12:20.684Z,8.18
2023-01-08T22:14:48.973Z,8.42
2023-01-08T22:17:16.404Z,8.27
2023-01-08T22:19:43.790Z,8.00
2023-01-08T22:22:11.387Z,7.81
2023-01-08T22:24:40.306Z,7.59
2023-01-08T22:27:09.004Z,7.44
2023-01-08T22:29:37.523Z,7.32
2023-01-08T22:32:05.537Z,7.24
2023-01-08T22:34:34.605Z,7.17
2023-01-08T22:37:02.788Z,7.12
2023-01-08T22:39:32.137Z,7.10
2023-01-08T22:41:59.622Z,7.05
2023-01-08T22:44:27.112Z,6.97
2023-01-08T22:46:54.510Z,6.92
2023-01-08T22:49:21.900Z,6.91
2023-01-08T22:51:52.115Z,6.87
2023-01-08T22:54:19.900Z,6.79
2023-01-08T22:56:47.381Z,6.77
2023-01-08T22:59:14.889Z,6.89
2023-01-08T23:01:42.242Z,6.95
2023-01-08T23:04:10.258Z,6.98
2023-01-08T23:06:37.625Z,7.22
2023-01-08T23:09:05.053Z,7.35
2023-01-08T23:11:32.683Z,7.38
2023-01-08T23:14:00.899Z,7.46
2023-01-08T23:16:28.393Z,7.37
2023-01-08T23:18:56.695Z,7.23
2023-01-08T23:21:26.969Z,7.11
2023-01-08T23:23:54.531Z,6.98
2023-01-08T23:26:27.047Z,6.94
2023-01-08T23:28:56.722Z,7.61
2023-01-08T23:31:28.693Z,7.23
2023-01-08T23:33:57.880Z,7.01
2023-01-08T23:36:25.852Z,6.98
2023-01-08T23:38:55.956Z,7.08
2023-01-08T23:41:33.712Z,6.92
2023-01-08T23:44:10.749Z,7.02
2023-01-08T23:46:38.212Z,6.91
2023-01-08T23:49:07.248Z,6.93
2023-01-08T23:51:35.217Z,7.02
2023-01-08T23:54:02.954Z,7.50
2023-01-08T23:56:30.386Z,7.17
2023-01-08T23:58:58.056Z,6.95
